createdAt,value
2018-09-29T00:00:43.693Z,101720.47
2018-09-29T00:03:12.507Z,101717.03
2018-09-29T00:05:41.235Z,101724.63
2018-09-29T00:08:10.023Z,101724.24
2018-09-29T00:10:38.813Z,101722.90
2018-09-29T00:13:07.546Z,101724.36
2018-09-29T00:15:36.340Z,101723.89
2018-09-29T00:18:05.318Z,101718.98
2018-09-29T00:20:34.064Z,101723.50
2018-09-29T00:23:02.951Z,101715.91
2018-09-29T00:25:31.724Z,101711.52
2018-09-29T00:28:00.536Z,101708.83
2018-09-29T00:30:29.295Z,101707.00
2018-09-29T00:32:58.093Z,101697.19
2018-09-29T00:35:26.847Z,101695.46
2018-09-29T00:37:55.641Z,101694.11
2018-09-29T00:40:24.484Z,101702.66
2018-09-29T00:42:53.257Z,101702.19
2018-09-29T00:45:22.123Z,101700.97
2018-09-29T00:47:50.913Z,101701.44
2018-09-29T00:50:19.685Z,101701.92
2018-09-29T00:52:48.552Z,101702.79
2018-09-29T00:55:17.318Z,101701.56
2018-09-29T00:57:46.082Z,101698.02
2018-09-29T01:00:14.918Z,101699.83
2018-09-29T01:02:43.670Z,101700.79
2018-09-29T01:05:12.486Z,101698.61
2018-09-29T01:07:41.349Z,101705.81
2018-09-29T01:10:10.156Z,101707.64
2018-09-29T01:12:38.936Z,101700.53
2018-09-29T01:15:07.732Z,101696.02
2018-09-29T01:17:36.495Z,101697.36
2018-09-29T01:20:05.884Z,101704.56
2018-09-29T01:22:34.778Z,101715.33
2018-09-29T01:25:03.689Z,101707.77
2018-09-29T01:27:32.488Z,101712.63
2018-09-29T01:30:01.260Z,101718.02
2018-09-29T01:32:30.075Z,101716.31
2018-09-29T01:34:58.825Z,101712.28
2018-09-29T01:37:27.577Z,101712.75
2018-09-29T01:39:56.386Z,101716.31
2018-09-29T01:42:25.198Z,101705.55
2018-09-29T01:44:53.978Z,101709.59
2018-09-29T01:47:22.791Z,101713.62
2018-09-29T01:49:51.526Z,101711.41
2018-09-29T01:52:20.390Z,101704.69
2018-09-29T01:54:49.173Z,101701.61
2018-09-29T01:57:17.933Z,101709.59
2018-09-29T01:59:46.746Z,101714.58
2018-09-29T02:02:15.549Z,101715.45
2018-09-29T02:04:44.338Z,101715.78
2018-09-29T02:07:13.117Z,101721.30
2018-09-29T02:09:41.867Z,101725.25
2018-09-29T02:12:11.538Z,101722.17
2018-09-29T02:14:40.300Z,101719.09
2018-09-29T02:17:09.080Z,101705.16
2018-09-29T02:19:37.859Z,101704.30
2018-09-29T02:22:06.624Z,101703.81
2018-09-29T02:24:35.449Z,101702.12
2018-09-29T02:27:04.452Z,101706.16
2018-09-29T02:29:33.263Z,101710.19
2018-09-29T02:32:02.043Z,101709.32
2018-09-29T02:34:30.822Z,101708.45
2018-09-29T02:36:59.647Z,101698.56
2018-09-29T02:39:28.526Z,101698.30
2018-09-29T02:41:57.345Z,101702.20
2018-09-29T02:44:26.239Z,101701.34
2018-09-29T02:46:55.031Z,101702.33
2018-09-29T02:49:23.899Z,101691.19
2018-09-29T02:51:52.721Z,101696.56
2018-09-29T02:54:21.620Z,101701.94
2018-09-29T02:56:50.472Z,101697.48
2018-09-29T02:59:19.227Z,101690.76
2018-09-29T03:01:47.989Z,101688.07
2018-09-29T03:04:16.769Z,101690.41
2018-09-29T03:06:45.597Z,101688.19
2018-09-29T03:09:14.333Z,101693.58
2018-09-29T03:11:43.106Z,101695.04
2018-09-29T03:14:11.890Z,101692.83
2018-09-29T03:16:40.690Z,101695.52
2018-09-29T03:19:09.559Z,101693.78
2018-09-29T03:21:38.438Z,101696.00
2018-09-29T03:24:07.143Z,101689.00
2018-09-29T03:26:35.965Z,101685.92
2018-09-29T03:29:04.807Z,101682.28
2018-09-29T03:31:33.712Z,101686.44
2018-09-29T03:34:02.732Z,101690.47
2018-09-29T03:36:31.560Z,101688.26
2018-09-29T03:39:00.311Z,101701.23
2018-09-29T03:41:29.132Z,101696.33
2018-09-29T03:43:57.993Z,101684.05
2018-09-29T03:46:26.798Z,101685.66
2018-09-29T03:48:55.638Z,101685.30
2018-09-29T03:51:24.339Z,101685.30
2018-09-29T03:53:53.228Z,101683.09
2018-09-29T03:56:22.086Z,101669.65
2018-09-29T03:58:50.895Z,101664.75
2018-09-29T04:01:20.726Z,101664.27
2018-09-29T04:03:49.467Z,101667.44
2018-09-29T04:06:18.257Z,101672.81
2018-09-29T04:08:47.059Z,101682.23
2018-09-29T04:11:15.862Z,101684.92
2018-09-29T04:13:44.777Z,101685.91
2018-09-29T04:16:13.691Z,101697.50
2018-09-29T04:18:42.468Z,101698.01
2018-09-29T04:21:11.356Z,101711.81
2018-09-29T04:23:40.249Z,101705.09
2018-09-29T04:26:08.994Z,101702.52
2018-09-29T04:28:37.849Z,101698.01
2018-09-29T04:31:06.647Z,101686.86
2018-09-29T04:33:35.474Z,101693.11
2018-09-29T04:36:04.548Z,101696.66
2018-09-29T04:38:33.309Z,101693.11
2018-09-29T04:41:02.133Z,101693.11
2018-09-29T04:43:30.859Z,101693.59
2018-09-29T04:45:59.679Z,101698.97
2018-09-29T04:48:28.552Z,101706.08
2018-09-29T04:50:57.396Z,101701.66
2018-09-29T04:53:26.169Z,101705.69
2018-09-29T04:55:54.905Z,101712.02
2018-09-29T04:58:23.720Z,101709.81
2018-09-29T05:00:52.589Z,101708.98
2018-09-29T05:03:21.404Z,101708.98
2018-09-29T05:05:50.236Z,101715.31
2018-09-29T05:08:19.648Z,101708.11
2018-09-29T05:10:48.564Z,101693.80
2018-09-29T05:13:17.335Z,101699.17
2018-09-29T05:15:46.267Z,101697.83
2018-09-29T05:18:15.240Z,101701.86
2018-09-29T05:20:44.043Z,101702.81
2018-09-29T05:23:12.926Z,101701.00
2018-09-29T05:25:41.735Z,101696.09
2018-09-29T05:28:10.626Z,101696.61
2018-09-29T05:30:39.491Z,101697.44
2018-09-29T05:33:08.263Z,101695.27
2018-09-29T05:35:37.056Z,101694.39
2018-09-29T05:38:05.860Z,101693.05
2018-09-29T05:40:35.696Z,101692.66
2018-09-29T05:43:04.479Z,101682.89
2018-09-29T05:45:33.298Z,101687.28
2018-09-29T05:48:02.088Z,101687.77
2018-09-29T05:50:30.889Z,101687.77
2018-09-29T05:52:59.698Z,101694.13
2018-09-29T05:55:28.480Z,101705.36
2018-09-29T05:57:57.274Z,101708.92
2018-09-29T06:00:26.085Z,101703.06
2018-09-29T06:02:54.981Z,101701.80
2018-09-29T06:05:23.864Z,101702.67
2018-09-29T06:07:52.754Z,101706.70
2018-09-29T06:10:21.573Z,101695.08
2018-09-29T06:12:50.431Z,101695.95
2018-09-29T06:15:19.207Z,101704.02
2018-09-29T06:17:48.003Z,101707.19
2018-09-29T06:20:16.865Z,101708.53
2018-09-29T06:22:45.687Z,101708.17
2018-09-29T06:25:14.557Z,101711.70
2018-09-29T06:27:43.366Z,101702.28
2018-09-29T06:30:12.158Z,101704.88
2018-09-29T06:32:41.009Z,101706.70
2018-09-29T06:35:09.824Z,101708.05
2018-09-29T06:37:38.667Z,101706.23
2018-09-29T06:40:07.563Z,101700.38
2018-09-29T06:42:36.336Z,101693.65
2018-09-29T06:45:06.485Z,101692.78
2018-09-29T06:47:35.294Z,101696.70
2018-09-29T06:50:04.217Z,101690.45
2018-09-29T06:52:33.065Z,101684.98
2018-09-29T06:55:01.899Z,101678.73
2018-09-29T06:57:30.749Z,101674.23
2018-09-29T06:59:59.529Z,101677.00
2018-09-29T07:02:28.427Z,101670.67
2018-09-29T07:04:57.312Z,101668.37
2018-09-29T07:07:26.169Z,101668.84
2018-09-29T07:09:55.039Z,101657.10
2018-09-29T07:12:23.857Z,101664.21
2018-09-29T07:14:52.735Z,101658.84
2018-09-29T07:17:21.552Z,101660.56
2018-09-29T07:19:50.390Z,101665.08
2018-09-29T07:22:19.173Z,101668.64
2018-09-29T07:24:48.066Z,101666.78
2018-09-29T07:27:16.938Z,101651.98
2018-09-29T07:29:45.714Z,101659.97
2018-09-29T07:32:14.646Z,101660.92
2018-09-29T07:34:43.523Z,101661.31
2018-09-29T07:37:12.405Z,101661.31
2018-09-29T07:39:41.353Z,101652.77
2018-09-29T07:42:10.317Z,101654.47
2018-09-29T07:44:39.160Z,101651.30
2018-09-29T07:47:08.035Z,101650.43
2018-09-29T07:49:36.954Z,101645.92
2018-09-29T07:52:05.814Z,101638.72
2018-09-29T07:54:34.731Z,101634.20
2018-09-29T07:57:04.372Z,101621.72
2018-09-29T07:59:33.209Z,101623.06
2018-09-29T08:02:02.127Z,101619.89
2018-09-29T08:04:30.984Z,101611.34
2018-09-29T08:06:59.775Z,101612.69
2018-09-29T08:09:28.671Z,101612.21
2018-09-29T08:11:57.540Z,101610.35
2018-09-29T08:14:26.424Z,101613.55
2018-09-29T08:16:55.322Z,101600.94
2018-09-29T08:19:24.232Z,101599.59
2018-09-29T08:21:53.053Z,101597.30
2018-09-29T08:24:21.954Z,101599.50
2018-09-29T08:26:51.008Z,101594.12
2018-09-29T08:29:19.892Z,101593.65
2018-09-29T08:31:48.747Z,101586.41
2018-09-29T08:34:17.657Z,101586.41
2018-09-29T08:36:46.521Z,101583.72
2018-09-29T08:39:15.393Z,101591.70
2018-09-29T08:41:44.344Z,101585.84
2018-09-29T08:44:13.425Z,101572.00
2018-09-29T08:46:42.371Z,101578.12
2018-09-29T08:49:11.260Z,101577.77
2018-09-29T08:51:40.153Z,101570.05
2018-09-29T08:54:09.002Z,101566.89
2018-09-29T08:56:38.133Z,101561.50
2018-09-29T08:59:07.001Z,101568.36
2018-09-29T09:01:35.810Z,101552.95
2018-09-29T09:04:04.961Z,101548.53
2018-09-29T09:06:33.753Z,101545.37
2018-09-29T09:09:02.574Z,101548.92
2018-09-29T09:11:31.559Z,101544.89
2018-09-29T09:14:00.360Z,101549.79
2018-09-29T09:16:29.183Z,101551.87
2018-09-29T09:18:58.095Z,101549.19
2018-09-29T09:21:27.135Z,101542.81
2018-09-29T09:23:56.139Z,101536.03
2018-09-29T09:26:25.238Z,101536.89
2018-09-29T09:28:54.055Z,101522.09
2018-09-29T09:31:22.813Z,101519.76
2018-09-29T09:33:51.681Z,101501.44
2018-09-29T09:36:20.525Z,101502.27
2018-09-29T09:38:49.348Z,101497.77
2018-09-29T09:42:47.424Z,101492.38
2018-09-29T09:45:16.252Z,101494.81
2018-09-29T09:47:45.143Z,101483.28
2018-09-29T09:50:14.927Z,101483.63
2018-09-29T09:52:43.764Z,101487.61
2018-09-29T09:55:12.492Z,101476.72
2018-09-29T09:57:41.278Z,101470.86
2018-09-29T10:00:10.158Z,101468.42
2018-09-29T10:02:46.915Z,101453.63
2018-09-29T10:05:15.788Z,101461.22
2018-09-29T10:07:44.605Z,101448.63
2018-09-29T10:10:13.419Z,101448.98
2018-09-29T10:12:42.213Z,101435.44
2018-09-29T10:15:11.075Z,101434.09
2018-09-29T10:17:39.957Z,101445.72
2018-09-29T10:20:08.779Z,101433.61
2018-09-29T10:22:37.567Z,101433.97
2018-09-29T10:25:06.448Z,101430.31
2018-09-29T10:27:35.277Z,101417.34
2018-09-29T10:30:04.191Z,101419.55
2018-09-29T10:32:33.082Z,101411.96
2018-09-29T10:35:01.904Z,101403.41
2018-09-29T10:37:30.740Z,101389.48
2018-09-29T10:39:59.594Z,101396.69
2018-09-29T10:42:28.420Z,101381.89
2018-09-29T10:44:57.181Z,101388.12
2018-09-29T10:47:26.060Z,101375.52
2018-09-29T10:49:54.834Z,101369.30
2018-09-29T10:52:23.691Z,101362.06
2018-09-29T10:54:52.642Z,101356.33
2018-09-29T10:57:21.403Z,101341.53
2018-09-29T10:59:50.668Z,101333.95
2018-09-29T11:02:19.886Z,101336.16
2018-09-29T11:04:48.799Z,101337.50
2018-09-29T11:07:17.702Z,101324.05
2018-09-29T11:09:46.541Z,101317.80
2018-09-29T11:12:15.376Z,101326.73
2018-09-29T11:14:44.395Z,101318.28
2018-09-29T11:17:13.177Z,101315.59
2018-09-29T11:19:42.077Z,101312.42
2018-09-29T11:22:10.843Z,101308.87
2018-09-29T11:24:39.652Z,101302.14
2018-09-29T11:27:08.387Z,101297.24
2018-09-29T11:29:37.194Z,101295.42
2018-09-29T11:32:06.145Z,101299.94
2018-09-29T11:34:34.976Z,101298.59
2018-09-29T11:37:03.959Z,101297.24
2018-09-29T11:39:32.818Z,101295.42
2018-09-29T11:42:01.564Z,101284.66
2018-09-29T11:44:30.319Z,101277.94
2018-09-29T11:46:59.123Z,101280.63
2018-09-29T11:49:28.055Z,101270.23
2018-09-29T11:51:56.835Z,101250.06
2018-09-29T11:54:25.660Z,101243.82
2018-09-29T11:56:54.621Z,101230.85
2018-09-29T11:59:23.412Z,101220.09
2018-09-29T12:01:52.315Z,101207.98
2018-09-29T12:04:21.068Z,101198.57
2018-09-29T12:06:50.109Z,101188.67
2018-09-29T12:09:18.895Z,101187.81
2018-09-29T12:11:47.726Z,101181.09
2018-09-29T12:14:16.620Z,101164.47
2018-09-29T12:16:45.423Z,101165.33
2018-09-29T12:19:14.229Z,101155.05
2018-09-29T12:21:42.985Z,101135.35
2018-09-29T12:24:11.874Z,101128.14
2018-09-29T12:26:40.831Z,101130.84
2018-09-29T12:29:09.730Z,101122.77
2018-09-29T12:31:38.721Z,101124.59
2018-09-29T12:34:07.484Z,101122.28
2018-09-29T12:36:36.443Z,101136.22
2018-09-29T12:39:07.927Z,101126.80
2018-09-29T12:41:36.824Z,101118.25
2018-09-29T12:44:05.660Z,101122.28
2018-09-29T12:46:34.483Z,101124.97
2018-09-29T12:49:03.737Z,101133.53
2018-09-29T12:51:32.528Z,101129.98
2018-09-29T12:54:01.398Z,101122.77
2018-09-29T12:56:30.473Z,101111.14
2018-09-29T12:59:00.014Z,101105.77
2018-09-29T13:01:29.065Z,101101.87
2018-09-29T13:03:57.894Z,101104.08
2018-09-29T13:06:26.731Z,101095.48
2018-09-29T13:08:55.649Z,101098.70
2018-09-29T13:11:24.641Z,101096.83
2018-09-29T13:13:53.532Z,101091.59
2018-09-29T13:16:22.488Z,101092.45
2018-09-29T13:18:51.316Z,101086.21
2018-09-29T13:21:20.114Z,101085.73
2018-09-29T13:23:48.959Z,101088.90
2018-09-29T13:26:17.789Z,101086.70
2018-09-29T13:28:46.577Z,101083.14
2018-09-29T13:31:15.437Z,101082.31
2018-09-29T13:33:44.251Z,101082.31
2018-09-29T13:36:17.183Z,101077.04
2018-09-29T13:38:47.591Z,101080.11
2018-09-29T13:41:16.636Z,101063.59
2018-09-29T13:43:45.879Z,101064.59
2018-09-29T13:46:14.867Z,101055.17
2018-09-29T13:48:43.860Z,101049.28
2018-09-29T13:51:12.738Z,101058.34
2018-09-29T13:53:41.797Z,101050.38
2018-09-29T13:56:10.538Z,101041.48
2018-09-29T13:58:39.531Z,101039.28
2018-09-29T14:01:08.324Z,101019.11
2018-09-29T14:03:37.380Z,101030.35
2018-09-29T14:06:06.235Z,101009.32
2018-09-29T14:08:34.990Z,101006.22
2018-09-29T14:11:03.813Z,101008.45
2018-09-29T14:13:32.782Z,101002.19
2018-09-29T14:16:01.741Z,100996.36
2018-09-29T14:18:30.663Z,100992.77
2018-09-29T14:20:59.705Z,100988.73
2018-09-29T14:23:28.521Z,100983.02
2018-09-29T14:25:57.344Z,100974.94
2018-09-29T14:28:26.097Z,100968.22
2018-09-29T14:30:55.005Z,100963.81
2018-09-29T14:33:23.801Z,100956.13
2018-09-29T14:35:52.873Z,100949.88
2018-09-29T14:38:22.067Z,100935.09
2018-09-29T14:40:50.887Z,100918.58
2018-09-29T14:43:19.679Z,100918.09
2018-09-29T14:45:48.594Z,100901.61
2018-09-29T14:48:17.494Z,100906.13
2018-09-29T14:50:46.332Z,100902.95
2018-09-29T14:53:15.235Z,100888.66
2018-09-29T14:55:44.134Z,100891.34
2018-09-29T14:58:13.726Z,100896.34
2018-09-29T15:00:43.034Z,100887.80
2018-09-29T15:03:11.711Z,100881.06
2018-09-29T15:05:40.604Z,100881.55
2018-09-29T15:08:09.707Z,100884.38
2018-09-29T15:10:38.696Z,100868.73
2018-09-29T15:13:07.519Z,100853.95
2018-09-29T15:15:36.449Z,100853.45
2018-09-29T15:18:05.287Z,100850.87
2018-09-29T15:20:34.242Z,100841.47
2018-09-29T15:23:03.184Z,100834.74
2018-09-29T15:25:32.310Z,100827.20
2018-09-29T15:28:01.180Z,100846.50
2018-09-29T15:30:30.055Z,100852.73
2018-09-29T15:32:59.205Z,100841.13
2018-09-29T15:35:28.208Z,100850.16
2018-09-29T15:37:57.064Z,100850.16
2018-09-29T15:40:26.140Z,100843.09
2018-09-29T15:42:55.165Z,100832.34
2018-09-29T15:45:23.990Z,100841.38
2018-09-29T15:47:52.844Z,100825.25
2018-09-29T15:50:21.641Z,100827.07
2018-09-29T15:52:50.467Z,100833.45
2018-09-29T15:55:19.596Z,100823.90
2018-09-29T15:57:48.442Z,100816.80
2018-09-29T16:00:17.264Z,100809.73
2018-09-29T16:02:46.920Z,100806.56
2018-09-29T16:05:16.059Z,100793.95
2018-09-29T16:07:44.884Z,100793.13
2018-09-29T16:10:13.752Z,100781.51
2018-09-29T16:12:42.750Z,100788.23
2018-09-29T16:15:11.859Z,100779.30
2018-09-29T16:17:40.679Z,100771.23
2018-09-29T16:20:09.652Z,100769.52
2018-09-29T16:22:38.733Z,100775.38
2018-09-29T16:25:07.775Z,100781.27
2018-09-29T16:27:36.714Z,100788.48
2018-09-29T16:30:06.318Z,100785.42
2018-09-29T16:32:35.103Z,100772.84
2018-09-29T16:35:04.158Z,100766.11
2018-09-29T16:37:32.985Z,100773.32
2018-09-29T16:40:01.891Z,100765.25
2018-09-29T16:42:30.743Z,100759.02
2018-09-29T16:45:00.659Z,100752.30
2018-09-29T16:47:29.677Z,100738.16
2018-09-29T16:49:58.665Z,100752.30
2018-09-29T16:52:27.926Z,100747.78
2018-09-29T16:54:56.855Z,100753.64
2018-09-29T16:57:25.846Z,100747.44
2018-09-29T16:59:54.734Z,100750.13
2018-09-29T17:02:23.567Z,100745.09
2018-09-29T17:04:52.558Z,100734.48
2018-09-29T17:07:21.269Z,100733.48
2018-09-29T17:09:50.076Z,100727.27
2018-09-29T17:12:19.002Z,100729.45
2018-09-29T17:14:47.991Z,100729.10
2018-09-29T17:17:16.787Z,100724.92
2018-09-29T17:19:45.634Z,100703.91
2018-09-29T17:22:14.580Z,100706.11
2018-09-29T17:24:43.536Z,100700.73
2018-09-29T17:27:12.467Z,100689.97
2018-09-29T17:29:41.416Z,100672.16
2018-09-29T17:32:10.237Z,100674.70
2018-09-29T17:34:39.265Z,100671.64
2018-09-29T17:37:08.218Z,100659.55
2018-09-29T17:39:37.152Z,100657.72
2018-09-29T17:42:06.034Z,100669.81
2018-09-29T17:44:34.875Z,100660.41
2018-09-29T17:47:04.356Z,100654.54
2018-09-29T17:49:33.168Z,100655.51
2018-09-29T17:52:02.019Z,100657.72
2018-09-29T17:54:31.043Z,100656.86
2018-09-29T17:56:59.963Z,100654.69
2018-09-29T17:59:28.803Z,100649.80
2018-09-29T18:01:57.770Z,100640.73
2018-09-29T18:04:26.696Z,100646.95
2018-09-29T18:06:55.433Z,100646.10
2018-09-29T18:09:25.180Z,100642.92
2018-09-29T18:11:54.262Z,100638.89
2018-09-29T18:14:23.107Z,100639.90
2018-09-29T18:16:52.101Z,100641.24
2018-09-29T18:19:20.909Z,100639.90
2018-09-29T18:21:49.752Z,100626.94
2018-09-29T18:24:18.804Z,100632.32
2018-09-29T18:26:47.758Z,100642.59
2018-09-29T18:29:16.629Z,100634.00
2018-09-29T18:31:45.575Z,100625.11
2018-09-29T18:34:14.453Z,100621.56
2018-09-29T18:36:43.543Z,100622.42
2018-09-29T18:39:12.434Z,100627.43
2018-09-29T18:41:41.252Z,100617.53
2018-09-29T18:44:10.133Z,100605.44
2018-09-29T18:46:39.031Z,100600.55
2018-09-29T18:49:08.015Z,100610.44
2018-09-29T18:51:37.070Z,100600.95
2018-09-29T18:54:06.046Z,100603.38
2018-09-29T18:56:34.950Z,100598.49
2018-09-29T18:59:04.190Z,100597.48
2018-09-29T19:01:32.970Z,100595.31
2018-09-29T19:04:01.789Z,100592.63
2018-09-29T19:06:30.745Z,100594.80
2018-09-29T19:08:59.730Z,100583.55
2018-09-29T19:11:28.544Z,100580.02
2018-09-29T19:13:57.490Z,100579.04
2018-09-29T19:16:26.305Z,100569.63
2018-09-29T19:18:55.261Z,100567.80
2018-09-29T19:21:24.156Z,100567.31
2018-09-29T19:23:52.975Z,100562.77
2018-09-29T19:26:21.802Z,100563.77
2018-09-29T19:28:50.675Z,100570.83
2018-09-29T19:31:19.614Z,100563.62
2018-09-29T19:33:48.445Z,100551.03
2018-09-29T19:36:17.344Z,100542.97
2018-09-29T19:38:46.350Z,100553.23
2018-09-29T19:41:15.379Z,100551.75
2018-09-29T19:43:44.219Z,100535.61
2018-09-29T19:46:13.083Z,100530.72
2018-09-29T19:48:42.035Z,100532.06
2018-09-29T19:51:11.043Z,100521.69
2018-09-29T19:53:39.975Z,100526.20
2018-09-29T19:56:08.919Z,100517.28
2018-09-29T19:58:37.736Z,100515.81
2018-09-29T20:01:06.688Z,100507.27
2018-09-29T20:03:35.620Z,100501.52
2018-09-29T20:06:04.511Z,100498.83
2018-09-29T20:08:33.404Z,100489.91
2018-09-29T20:11:02.588Z,100475.00
2018-09-29T20:13:31.383Z,100477.20
2018-09-29T20:16:00.219Z,100483.92
2018-09-29T20:18:29.127Z,100478.18
2018-09-29T20:20:58.051Z,100481.73
2018-09-29T20:23:26.942Z,100483.56
2018-09-29T20:25:55.704Z,100481.23
2018-09-29T20:28:24.550Z,100476.34
2018-09-29T20:30:53.364Z,100482.06
2018-09-29T20:33:22.210Z,100481.23
2018-09-29T20:35:51.982Z,100475.00
2018-09-29T20:38:20.866Z,100479.52
2018-09-29T20:40:49.753Z,100479.89
2018-09-29T20:43:18.568Z,100478.03
2018-09-29T20:45:47.365Z,100466.08
2018-09-29T20:48:16.285Z,100456.67
2018-09-29T20:50:45.278Z,100458.38
2018-09-29T20:53:14.085Z,100449.95
2018-09-29T20:55:42.850Z,100454.84
2018-09-29T20:58:11.680Z,100451.78
2018-09-29T21:00:40.475Z,100441.88
2018-09-29T21:03:09.300Z,100443.23
2018-09-29T21:05:38.108Z,100436.14
2018-09-29T21:08:06.953Z,100433.82
2018-09-29T21:10:36.075Z,100441.03
2018-09-29T21:13:05.294Z,100446.41
2018-09-29T21:15:33.966Z,100436.52
2018-09-29T21:18:02.727Z,100432.96
2018-09-29T21:20:31.534Z,100442.38
2018-09-29T21:23:00.332Z,100436.52
2018-09-29T21:25:29.159Z,100421.35
2018-09-29T21:27:57.948Z,100423.19
2018-09-29T21:30:26.743Z,100427.73
2018-09-29T21:32:55.527Z,100427.22
2018-09-29T21:35:24.330Z,100429.09
2018-09-29T21:37:53.061Z,100432.26
2018-09-29T21:40:21.917Z,100430.42
2018-09-29T21:42:50.655Z,100437.48
2018-09-29T21:45:19.554Z,100431.77
2018-09-29T21:47:48.313Z,100430.77
2018-09-29T21:50:17.146Z,100423.19
2018-09-29T21:52:45.977Z,100429.42
2018-09-29T21:55:14.773Z,100425.39
2018-09-29T21:57:43.594Z,100420.01
2018-09-29T22:00:12.395Z,100421.35
2018-09-29T22:02:41.269Z,100407.05
2018-09-29T22:05:10.033Z,100407.79
2018-09-29T22:07:38.815Z,100415.00
2018-09-29T22:10:07.531Z,100427.09
2018-09-29T22:12:36.347Z,100423.92
2018-09-29T22:15:05.403Z,100415.00
2018-09-29T22:17:34.273Z,100410.81
2018-09-29T22:20:03.022Z,100412.16
2018-09-29T22:22:31.776Z,100402.27
2018-09-29T22:25:00.613Z,100401.41
2018-09-29T22:27:29.400Z,100399.94
2018-09-29T22:29:58.189Z,100402.63
2018-09-29T22:32:26.947Z,100405.32
2018-09-29T22:34:55.667Z,100402.63
2018-09-29T22:37:24.476Z,100396.77
2018-09-29T22:39:53.240Z,100398.11
2018-09-29T22:42:22.004Z,100391.39
2018-09-29T22:44:50.849Z,100381.98
2018-09-29T22:47:19.700Z,100382.80
2018-09-29T22:49:48.512Z,100378.28
2018-09-29T22:52:17.256Z,100367.03
2018-09-29T22:54:46.140Z,100366.18
2018-09-29T22:57:14.952Z,100375.10
2018-09-29T22:59:43.873Z,100371.92
2018-09-29T23:02:12.724Z,100365.54
2018-09-29T23:04:41.532Z,100364.72
2018-09-29T23:07:10.291Z,100367.41
2018-09-29T23:09:39.104Z,100367.41
2018-09-29T23:12:07.947Z,100359.34
2018-09-29T23:14:36.724Z,100361.50
2018-09-29T23:17:05.734Z,100348.43
2018-09-29T23:19:34.550Z,100342.20
2018-09-29T23:22:03.390Z,100339.02
2018-09-29T23:24:32.253Z,100345.25
2018-09-29T23:27:01.571Z,100338.66
2018-09-29T23:29:30.387Z,100340.36
2018-09-29T23:31:59.195Z,100326.92
2018-09-29T23:34:28.009Z,100326.06
2018-09-29T23:36:56.928Z,100320.56
2018-09-29T23:39:25.660Z,100320.20
2018-09-29T23:41:54.535Z,100308.59
2018-09-29T23:44:23.307Z,100313.48
2018-09-29T23:46:52.053Z,100309.94
2018-09-29T23:49:20.868Z,100305.90
2018-09-29T23:51:49.654Z,100295.64
2018-09-29T23:54:18.431Z,100291.60
2018-09-29T23:56:47.206Z,100286.75
2018-09-29T23:59:15.998Z,100291.97
